Time;durP1;ratioP1;P1;durP2;ratioP2;P2;SDS_P1;SDS_P2;PMS_P1;PMS_P2;Temp;Humidity;BMP_temperature;BMP_pressure;BME280_temperature;BME280_humidity;BME280_pressure;Samples;Min_cycle;Max_cycle;Signal;HPM_P1;HPM_P2
2022/07/11 00:04:37;;;;;;;5.53;4.40;;;;;;;16.18;100.00;97364.44;5084353;28;20063;-82
2022/07/11 00:10:26;;;;;;;5.57;3.72;;;;;;;15.83;100.00;97328.88;5050358;28;20073;-81
2022/07/11 00:13:23;;;;;;;10.38;4.70;;;;;;;15.71;100.00;97332.63;5040943;27;22070;-82
2022/07/11 00:15:52;;;;;;;8.75;4.32;;;;;;;15.42;100.00;97291.09;5114298;27;20517;-83
2022/07/11 00:18:18;;;;;;;7.60;4.60;;;;;;;15.64;100.00;97337.69;5097034;27;20123;-83
2022/07/11 00:20:44;;;;;;;6.30;4.43;;;;;;;15.68;100.00;97363.44;5105762;27;20042;-83
2022/07/11 00:23:09;;;;;;;12.75;4.53;;;;;;;15.53;100.00;97359.34;5106094;27;20035;-81
2022/07/11 00:25:35;;;;;;;4.88;4.38;;;;;;;15.51;100.00;97365.81;5110090;27;20125;-81
2022/07/11 00:28:00;;;;;;;6.35;4.88;;;;;;;15.52;100.00;97379.19;5100993;27;20033;-81
2022/07/11 00:30:26;;;;;;;5.97;4.63;;;;;;;15.38;100.00;97374.06;5110204;27;20073;-83
2022/07/11 00:32:51;;;;;;;5.90;4.97;;;;;;;15.39;100.00;97361.44;5114463;27;20456;-83
2022/07/11 00:35:17;;;;;;;9.73;5.25;;;;;;;15.43;100.00;97371.84;5100637;27;20046;-81
2022/07/11 00:37:43;;;;;;;7.53;5.65;;;;;;;15.35;100.00;97376.19;5099235;27;20032;-82
2022/07/11 00:40:09;;;;;;;6.13;4.47;;;;;;;15.31;100.00;97370.19;5115602;27;20478;-81
2022/07/11 00:42:34;;;;;;;18.63;5.55;;;;;;;15.37;100.00;97377.75;5132281;27;20026;-81
2022/07/11 00:45:00;;;;;;;8.77;5.68;;;;;;;15.29;100.00;97384.78;5097833;27;20122;-81
2022/07/11 00:47:25;;;;;;;7.57;5.47;;;;;;;15.18;100.00;97383.81;5102222;27;20115;-82
2022/07/11 00:49:51;;;;;;;9.05;5.50;;;;;;;15.13;100.00;97369.84;5105423;28;20031;-82
2022/07/11 00:52:16;;;;;;;5.80;5.20;;;;;;;15.20;100.00;97370.19;5094435;28;20031;-83
2022/07/11 00:54:43;;;;;;;10.95;5.40;;;;;;;15.19;100.00;97376.59;5094590;28;20062;-82
2022/07/11 00:57:09;;;;;;;7.57;5.40;;;;;;;15.16;100.00;97379.53;5130933;27;20027;-83
2022/07/11 00:59:35;;;;;;;7.70;5.28;;;;;;;15.14;100.00;97373.41;5095001;28;20034;-82
2022/07/11 01:02:01;;;;;;;8.95;5.40;;;;;;;15.13;100.00;97369.03;5130052;27;20011;-82
2022/07/11 01:04:26;;;;;;;6.53;5.00;;;;;;;15.17;100.00;97378.53;5096223;28;20419;-82
2022/07/11 01:06:52;;;;;;;7.15;4.90;;;;;;;15.08;100.00;97360.44;5090341;28;20104;-81
2022/07/11 01:09:17;;;;;;;11.27;4.45;;;;;;;15.03;100.00;97370.75;5093937;28;20038;-82
2022/07/11 01:11:43;;;;;;;6.18;4.72;;;;;;;15.01;100.00;97384.34;5094324;28;20035;-82
2022/07/11 01:14:08;;;;;;;5.43;4.75;;;;;;;14.94;100.00;97380.47;5130591;27;20097;-82
2022/07/11 01:16:34;;;;;;;7.68;5.15;;;;;;;14.89;100.00;97384.53;5105859;27;20027;-82
2022/07/11 01:19:00;;;;;;;9.55;6.05;;;;;;;14.94;100.00;97385.00;5114374;27;20034;-82
2022/07/11 01:21:37;;;;;;;7.60;5.05;;;;;;;15.02;100.00;97390.59;5114233;27;20489;-82
2022/07/11 01:24:03;;;;;;;10.68;5.30;;;;;;;14.93;100.00;97391.34;5129589;27;20084;-83
2022/07/11 01:26:30;;;;;;;9.48;6.57;;;;;;;14.99;100.00;97393.53;5094577;28;20036;-82
2022/07/11 01:28:57;;;;;;;7.63;6.07;;;;;;;14.96;100.00;97399.19;5114094;27;20019;-82
2022/07/11 01:31:23;;;;;;;19.40;6.88;;;;;;;15.00;100.00;97414.13;5097424;28;20027;-83
2022/07/11 01:33:49;;;;;;;8.98;6.60;;;;;;;14.86;100.00;97401.75;5128036;27;19918;-82
2022/07/11 01:36:15;;;;;;;10.52;6.97;;;;;;;14.74;100.00;97394.69;5113204;27;20124;-82
2022/07/11 01:38:40;;;;;;;12.25;7.15;;;;;;;14.65;100.00;97395.44;5101409;27;20118;-81
2022/07/11 01:41:07;;;;;;;10.57;7.45;;;;;;;14.69;100.00;97396.91;5096920;27;20658;-82
2022/07/11 01:43:32;;;;;;;12.82;6.70;;;;;;;14.69;100.00;97407.66;5096653;28;20028;-82
2022/07/11 01:45:58;;;;;;;9.73;7.13;;;;;;;14.63;100.00;97398.25;5110735;28;20076;-83
2022/07/11 01:48:24;;;;;;;8.18;6.72;;;;;;;14.63;100.00;97392.88;5093839;28;20055;-82
2022/07/11 01:50:50;;;;;;;7.18;5.20;;;;;;;14.56;100.00;97396.16;5093679;28;20074;-82
2022/07/11 01:53:16;;;;;;;11.23;5.95;;;;;;;14.54;100.00;97403.53;5129399;28;20468;-82
2022/07/11 01:55:42;;;;;;;8.98;5.68;;;;;;;14.32;100.00;97398.97;5099519;28;20020;-83
2022/07/11 01:58:08;;;;;;;5.85;5.00;;;;;;;14.40;100.00;97412.69;5100083;28;20039;-83
2022/07/11 02:00:34;;;;;;;6.88;5.95;;;;;;;14.32;100.00;97403.47;5105189;28;20110;-82
2022/07/11 02:02:59;;;;;;;11.45;5.40;;;;;;;14.31;100.00;97402.63;5093554;28;20034;-82
2022/07/11 02:05:25;;;;;;;10.05;4.50;;;;;;;14.26;100.00;97415.59;5096465;28;20478;-83
2022/07/11 02:10:34;;;;;;;7.38;5.90;;;;;;;14.22;100.00;97414.09;5106765;28;20025;-82
2022/07/11 02:13:00;;;;;;;10.13;5.90;;;;;;;14.07;100.00;97410.78;5105243;28;20027;-81
2022/07/11 02:15:27;;;;;;;9.95;6.70;;;;;;;14.11;100.00;97416.78;5096463;28;20019;-82
2022/07/11 02:17:53;;;;;;;10.95;6.70;;;;;;;14.05;100.00;97419.97;5105248;28;20111;-83
2022/07/11 02:20:19;;;;;;;10.98;6.70;;;;;;;13.96;100.00;97426.91;5096691;28;20055;-83
2022/07/11 02:22:45;;;;;;;12.45;6.75;;;;;;;13.83;100.00;97418.06;5096069;28;20020;-82
2022/07/11 02:25:10;;;;;;;11.23;6.28;;;;;;;13.78;100.00;97430.16;5110494;28;20023;-82
2022/07/11 02:27:36;;;;;;;15.25;7.00;;;;;;;13.76;100.00;97437.47;5097594;28;20030;-82
2022/07/11 02:30:02;;;;;;;9.63;6.18;;;;;;;13.82;100.00;97437.00;5110118;28;20034;-82
2022/07/11 02:32:28;;;;;;;12.25;6.47;;;;;;;13.81;100.00;97440.69;5095008;28;20023;-82
2022/07/11 02:34:53;;;;;;;10.00;6.55;;;;;;;13.67;100.00;97430.97;5094985;28;20042;-82
2022/07/11 02:37:19;;;;;;;11.88;6.55;;;;;;;13.77;100.00;97434.69;5093642;28;20034;-84
2022/07/11 02:39:45;;;;;;;13.88;6.68;;;;;;;13.74;100.00;97434.91;5113167;28;20048;-83
2022/07/11 02:42:11;;;;;;;12.70;5.70;;;;;;;13.69;100.00;97436.25;5097477;28;20111;-84
2022/07/11 02:44:36;;;;;;;7.72;5.53;;;;;;;13.68;100.00;97431.84;5110327;28;20047;-82
2022/07/11 02:47:02;;;;;;;11.05;5.97;;;;;;;13.71;100.00;97434.28;5129251;28;20031;-82
2022/07/11 02:49:30;;;;;;;9.38;6.10;;;;;;;13.73;100.00;97432.31;5096175;28;20035;-82
2022/07/11 02:51:56;;;;;;;8.32;5.45;;;;;;;13.65;100.00;97429.38;5133727;27;20035;-82
2022/07/11 02:54:22;;;;;;;7.90;5.38;;;;;;;13.67;100.00;97443.53;5093352;28;20027;-83
2022/07/11 02:56:47;;;;;;;8.10;5.82;;;;;;;13.57;100.00;97446.06;5104695;28;20550;-82
2022/07/11 02:59:13;;;;;;;7.40;5.43;;;;;;;13.65;100.00;97448.19;5096006;28;20079;-81
2022/07/11 03:01:41;;;;;;;12.70;5.70;;;;;;;13.65;100.00;97451.75;5096241;28;20031;-83
2022/07/11 03:04:09;;;;;;;6.68;5.57;;;;;;;13.56;100.00;97453.31;5098825;28;20028;-83
2022/07/11 03:06:36;;;;;;;13.23;5.30;;;;;;;13.62;100.00;97457.34;5094194;28;20031;-82
2022/07/11 03:09:02;;;;;;;14.60;6.22;;;;;;;13.65;100.00;97456.25;5099461;27;20408;-82
2022/07/11 03:11:27;;;;;;;11.95;6.50;;;;;;;13.64;100.00;97457.22;5099570;27;20038;-82
2022/07/11 03:13:53;;;;;;;8.85;6.45;;;;;;;13.70;100.00;97468.38;5100002;28;20092;-82
2022/07/11 03:16:19;;;;;;;9.70;5.97;;;;;;;13.69;100.00;97460.44;5096254;28;20036;-82
2022/07/11 03:18:45;;;;;;;10.60;6.32;;;;;;;13.73;100.00;97460.06;5115994;27;20035;-82
2022/07/11 03:21:10;;;;;;;13.77;5.78;;;;;;;13.73;100.00;97472.66;5101897;28;20027;-82
2022/07/11 03:23:36;;;;;;;11.18;6.10;;;;;;;13.72;100.00;97485.22;5114549;27;20030;-82
2022/07/11 03:26:02;;;;;;;14.55;7.10;;;;;;;13.70;100.00;97471.06;5098544;28;20034;-82
2022/07/11 03:28:28;;;;;;;9.10;6.75;;;;;;;13.65;100.00;97472.38;5100175;28;20032;-82
2022/07/11 03:30:54;;;;;;;12.40;6.93;;;;;;;13.69;100.00;97471.19;5130011;27;20050;-82
2022/07/11 03:33:21;;;;;;;10.65;6.40;;;;;;;13.68;100.00;97466.78;5133065;27;20027;-83
2022/07/11 03:35:47;;;;;;;16.00;6.78;;;;;;;13.71;100.00;97477.31;5105815;27;20433;-83
2022/07/11 03:38:13;;;;;;;11.90;6.93;;;;;;;13.76;100.00;97477.78;5097473;27;20411;-82
2022/07/11 03:40:39;;;;;;;16.25;8.48;;;;;;;13.78;100.00;97467.81;5099001;27;20098;-82
2022/07/11 03:43:05;;;;;;;11.23;7.03;;;;;;;13.81;100.00;97464.88;5102866;28;20027;-82
2022/07/11 03:45:30;;;;;;;9.68;6.40;;;;;;;13.82;100.00;97470.13;5099542;28;20039;-82
2022/07/11 03:47:57;;;;;;;10.38;6.25;;;;;;;13.86;100.00;97477.00;5098954;27;20019;-83
2022/07/11 03:50:23;;;;;;;10.98;6.20;;;;;;;13.89;100.00;97482.13;5096460;28;20030;-84
2022/07/11 03:52:48;;;;;;;11.02;6.10;;;;;;;14.02;100.00;97476.69;5097284;27;20496;-83
2022/07/11 03:55:14;;;;;;;13.57;6.43;;;;;;;14.13;100.00;97479.38;5107689;27;20074;-82
2022/07/11 03:57:40;;;;;;;12.27;6.68;;;;;;;14.17;100.00;97480.88;5102518;27;20035;-83
2022/07/11 04:00:09;;;;;;;10.98;7.45;;;;;;;14.24;100.00;97470.50;5099245;28;20103;-82
2022/07/11 04:02:35;;;;;;;10.02;6.75;;;;;;;14.36;100.00;97474.97;5095659;28;20491;-83
2022/07/11 04:05:01;;;;;;;10.45;6.75;;;;;;;14.40;100.00;97466.50;5098163;27;20037;-83
2022/07/11 04:07:29;;;;;;;12.82;8.00;;;;;;;14.53;100.00;97461.88;5100294;28;20043;-82
2022/07/11 04:09:56;;;;;;;11.93;6.03;;;;;;;14.73;100.00;97484.53;5118779;27;20024;-83
2022/07/11 04:12:21;;;;;;;19.55;7.10;;;;;;;14.79;100.00;97473.28;5098262;27;20116;-82
2022/07/11 04:14:47;;;;;;;17.63;6.82;;;;;;;14.83;100.00;97482.81;5098422;27;20058;-83
2022/07/11 04:17:13;;;;;;;12.45;6.15;;;;;;;14.90;100.00;97475.09;5102730;28;20475;-82
2022/07/11 04:19:39;;;;;;;12.75;6.65;;;;;;;14.98;100.00;97491.50;5094457;28;20042;-81
2022/07/11 04:22:05;;;;;;;10.48;6.47;;;;;;;14.94;100.00;97480.13;5094991;28;20063;-82
2022/07/11 04:24:31;;;;;;;15.32;6.47;;;;;;;15.04;100.00;97491.00;5095114;28;20031;-82
2022/07/11 04:26:56;;;;;;;10.38;6.30;;;;;;;15.11;100.00;97492.22;5100818;27;20038;-82
2022/07/11 04:29:23;;;;;;;8.23;5.45;;;;;;;15.24;100.00;97494.78;5115191;27;20444;-82
2022/07/11 04:31:50;;;;;;;9.40;5.90;;;;;;;15.30;100.00;97487.03;5098010;27;20023;-84
2022/07/11 04:34:16;;;;;;;12.20;6.15;;;;;;;15.45;100.00;97485.78;5098723;28;20119;-83
2022/07/11 04:36:45;;;;;;;15.25;6.18;;;;;;;15.57;100.00;97495.59;5106977;27;20027;-83
2022/07/11 04:39:11;;;;;;;13.02;7.85;;;;;;;15.67;100.00;97491.16;5094412;28;20031;-84
2022/07/11 04:41:36;;;;;;;10.27;5.43;;;;;;;15.59;100.00;97490.94;5094880;28;20100;-83
2022/07/11 04:44:02;;;;;;;7.15;5.10;;;;;;;15.75;100.00;97497.75;5095966;27;20110;-81
2022/07/11 04:46:29;;;;;;;15.38;6.25;;;;;;;15.86;100.00;97495.00;5114480;27;20106;-82
2022/07/11 04:48:55;;;;;;;11.48;5.60;;;;;;;15.88;100.00;97495.72;5097355;27;20567;-81
2022/07/11 04:51:20;;;;;;;9.80;5.15;;;;;;;15.98;100.00;97507.47;5132009;27;20493;-83
2022/07/11 04:53:46;;;;;;;6.40;4.30;;;;;;;16.26;100.00;97512.22;5093880;28;20024;-82
2022/07/11 04:56:12;;;;;;;13.00;4.68;;;;;;;17.05;100.00;97505.31;5097273;27;20042;-80
2022/07/11 04:58:38;;;;;;;5.95;4.65;;;;;;;18.36;100.00;97505.88;5105498;27;20547;-82
2022/07/11 05:01:04;;;;;;;5.72;4.30;;;;;;;19.66;93.35;97498.56;5112254;28;20065;-80
2022/07/11 05:03:29;;;;;;;6.72;3.72;;;;;;;20.38;85.65;97500.34;5128763;27;20042;-82
2022/07/11 05:05:55;;;;;;;6.20;3.88;;;;;;;21.65;78.47;97492.31;5096868;28;20034;-82
2022/07/11 05:08:21;;;;;;;5.93;3.08;;;;;;;23.75;67.58;97482.13;5093686;28;20028;-82
2022/07/11 05:10:47;;;;;;;6.90;3.10;;;;;;;25.05;60.71;97481.16;5093268;28;20050;-83
2022/07/11 05:13:19;;;;;;;6.68;2.72;;;;;;;25.68;55.81;97467.81;5095746;27;20058;-83
2022/07/11 05:15:49;;;;;;;4.95;2.65;;;;;;;26.07;54.11;97472.91;5094916;28;20065;-82
2022/07/11 05:18:15;;;;;;;3.22;2.55;;;;;;;26.36;53.52;97467.31;5110307;28;20032;-82
2022/07/11 05:20:40;;;;;;;4.32;2.40;;;;;;;27.61;49.85;97462.00;5092748;28;20027;-82
2022/07/11 05:23:06;;;;;;;9.50;4.43;;;;;;;28.25;48.60;97460.56;5090278;28;20513;-82
2022/07/11 05:25:32;;;;;;;9.07;5.53;;;;;;;27.99;47.84;97464.06;5090544;28;20092;-82
2022/07/11 05:27:57;;;;;;;10.00;4.43;;;;;;;25.24;53.45;97481.47;5090810;28;20035;-81
2022/07/11 05:30:23;;;;;;;5.60;3.78;;;;;;;26.23;51.97;97472.69;5107167;28;20059;-81
2022/07/11 05:32:49;;;;;;;7.13;5.25;;;;;;;27.03;49.95;97472.41;5090790;28;20031;-81
2022/07/11 05:35:14;;;;;;;9.05;4.57;;;;;;;27.74;48.99;97467.56;5091923;27;20089;-81
2022/07/11 05:37:40;;;;;;;26.15;16.13;;;;;;;28.53;47.31;97464.03;5110437;27;20032;-81
2022/07/11 05:40:06;;;;;;;6.32;3.45;;;;;;;29.03;44.44;97453.47;5091630;28;20113;-81
2022/07/11 05:42:32;;;;;;;11.43;4.72;;;;;;;30.01;43.01;97452.41;5093332;28;20102;-82
2022/07/11 05:44:57;;;;;;;13.75;4.30;;;;;;;30.67;41.26;97449.28;5090397;28;20162;-81
2022/07/11 05:47:23;;;;;;;12.32;3.40;;;;;;;30.46;40.98;97451.31;5124851;27;20042;-82
2022/07/11 05:49:49;;;;;;;10.45;3.40;;;;;;;30.27;41.57;97463.28;5107528;28;20031;-82
2022/07/11 05:52:15;;;;;;;9.23;6.20;;;;;;;31.23;39.48;97447.31;5090012;28;20114;-83
2022/07/11 05:54:40;;;;;;;9.70;4.13;;;;;;;32.24;38.00;97450.41;5124055;27;20030;-82
2022/07/11 05:57:06;;;;;;;7.13;3.67;;;;;;;32.96;36.45;97449.34;5089678;28;20074;-82
2022/07/11 05:59:32;;;;;;;6.80;3.20;;;;;;;31.41;38.21;97450.09;5107340;28;20511;-81
2022/07/11 06:01:57;;;;;;;4.40;2.88;;;;;;;32.19;37.78;97453.06;5092124;28;20027;-83
2022/07/11 06:04:23;;;;;;;8.57;3.40;;;;;;;33.70;35.71;97440.34;5108286;28;20122;-83
2022/07/11 06:06:48;;;;;;;13.07;6.90;;;;;;;33.64;35.30;97440.47;5101794;28;20031;-84
2022/07/11 06:09:14;;;;;;;6.28;2.90;;;;;;;32.21;36.46;97439.81;5109270;28;20039;-83
2022/07/11 06:11:40;;;;;;;18.48;11.15;;;;;;;33.20;35.80;97441.91;5107548;28;20462;-82
2022/07/11 06:14:06;;;;;;;5.78;3.40;;;;;;;33.22;35.80;97443.34;5110071;28;20494;-82
2022/07/11 06:16:31;;;;;;;6.78;3.45;;;;;;;32.37;36.85;97446.59;5085391;28;20031;-83
2022/07/11 06:18:58;;;;;;;8.30;4.15;;;;;;;32.10;37.08;97448.91;5092128;28;20126;-83
2022/07/11 06:21:27;;;;;;;5.40;3.33;;;;;;;31.84;37.98;97449.22;5107126;28;20034;-82
2022/07/11 06:23:53;;;;;;;8.07;4.05;;;;;;;30.96;39.59;97463.28;5127267;27;20027;-82
2022/07/11 06:26:18;;;;;;;6.68;3.03;;;;;;;32.13;36.55;97442.91;5095236;28;20036;-82
2022/07/11 06:28:44;;;;;;;4.97;3.33;;;;;;;32.76;35.44;97447.97;5090354;28;20093;-82
2022/07/11 06:31:10;;;;;;;10.80;2.80;;;;;;;32.33;35.20;97440.72;5106903;28;20063;-81
2022/07/11 06:33:36;;;;;;;3.28;2.45;;;;;;;31.96;35.07;97436.31;5089919;28;20032;-82
2022/07/11 06:36:03;;;;;;;3.70;2.53;;;;;;;33.19;33.57;97437.47;5108441;28;20032;-82
2022/07/11 06:38:29;;;;;;;8.00;1.70;;;;;;;34.19;30.58;97418.63;5093988;28;20073;-83
2022/07/11 06:40:55;;;;;;;2.03;1.58;;;;;;;34.09;29.74;97419.22;5110037;27;20086;-82
2022/07/11 06:43:21;;;;;;;2.20;1.70;;;;;;;34.00;30.20;97412.38;5116443;27;20023;-81
2022/07/11 06:45:47;;;;;;;6.30;1.83;;;;;;;33.32;31.75;97426.09;5127678;27;20046;-81
2022/07/11 06:48:13;;;;;;;2.40;1.88;;;;;;;34.40;30.69;97431.81;5093461;28;20035;-81
2022/07/11 06:50:42;;;;;;;8.65;5.13;;;;;;;34.21;31.20;97421.97;5127783;27;20019;-80
2022/07/11 06:53:07;;;;;;;9.20;2.22;;;;;;;33.55;32.43;97428.88;5099418;28;20119;-82
2022/07/11 06:55:33;;;;;;;12.35;4.10;;;;;;;34.14;31.12;97418.53;5128031;27;20099;-83
2022/07/11 06:57:59;;;;;;;8.07;6.03;;;;;;;34.96;30.10;97405.88;5110310;28;20027;-83
2022/07/11 07:00:27;;;;;;;11.55;2.85;;;;;;;34.40;29.54;97412.34;5127960;27;20023;-82
2022/07/11 07:02:56;;;;;;;10.88;5.55;;;;;;;35.28;29.09;97403.38;5110702;28;20016;-84
2022/07/11 07:05:22;;;;;;;5.38;3.25;;;;;;;34.59;29.75;97405.53;5128131;27;20038;-82
2022/07/11 07:07:48;;;;;;;4.63;2.38;;;;;;;35.07;29.14;97412.47;5129213;27;20074;-83
2022/07/11 07:10:14;;;;;;;321.48;23.45;;;;;;;34.34;29.56;97407.81;5095326;28;20039;-83
2022/07/11 07:12:39;;;;;;;11.02;3.70;;;;;;;34.93;29.73;97405.53;5110740;28;20019;-83
2022/07/11 07:15:05;;;;;;;18.65;9.20;;;;;;;35.26;29.61;97405.53;5109853;28;20034;-82
2022/07/11 07:17:31;;;;;;;9.07;2.78;;;;;;;35.93;28.00;97394.28;5127827;27;20035;-83
2022/07/11 07:19:57;;;;;;;25.10;16.30;;;;;;;35.46;30.26;97405.88;5110485;28;20403;-83
2022/07/11 07:22:23;;;;;;;6.88;2.53;;;;;;;35.36;28.23;97395.41;5095581;27;20128;-83
2022/07/11 07:24:48;;;;;;;4.97;2.35;;;;;;;35.96;27.61;97402.94;5096929;28;20455;-83
2022/07/11 07:27:14;;;;;;;4.50;3.03;;;;;;;35.92;27.77;97401.78;5128255;27;20035;-83
2022/07/11 07:29:40;;;;;;;3.03;1.80;;;;;;;36.39;26.43;97396.50;5115039;27;20023;-83
2022/07/11 07:32:06;;;;;;;9.43;6.65;;;;;;;36.87;25.70;97396.44;5093144;28;20070;-84
2022/07/11 07:34:32;;;;;;;3.75;2.40;;;;;;;35.83;26.48;97394.97;5112686;27;20062;-84
2022/07/11 07:36:59;;;;;;;11.93;2.65;;;;;;;35.26;26.48;97388.84;5096506;27;20028;-83
2022/07/11 07:39:24;;;;;;;22.20;16.83;;;;;;;33.46;28.82;97390.66;5094257;28;20111;-83
2022/07/11 07:41:50;;;;;;;4.65;2.33;;;;;;;31.16;31.90;97396.78;5092505;28;20118;-83
2022/07/11 07:44:16;;;;;;;5.75;2.08;;;;;;;29.75;33.93;97408.38;5130284;27;20060;-83
2022/07/11 07:46:41;;;;;;;9.07;1.55;;;;;;;28.25;35.90;97405.53;5094722;28;20038;-82
2022/07/11 07:49:07;;;;;;;6.70;1.50;;;;;;;28.05;35.54;97415.69;5126520;27;20035;-83
2022/07/11 07:51:33;;;;;;;7.60;2.40;;;;;;;29.28;34.86;97413.19;5092659;28;20028;-83
2022/07/11 07:53:58;;;;;;;5.15;2.22;;;;;;;31.32;31.94;97406.38;5091323;28;20333;-82
2022/07/11 07:56:28;;;;;;;3.78;2.00;;;;;;;33.03;30.06;97407.63;5092275;28;20024;-83
2022/07/11 07:58:54;;;;;;;1.88;1.40;;;;;;;32.82;28.04;97397.16;5092852;28;20023;-83
2022/07/11 08:01:34;;;;;;;6.07;1.83;;;;;;;30.64;30.96;97403.59;5092614;28;20031;-83
2022/07/11 08:04:00;;;;;;;5.32;1.70;;;;;;;30.52;30.81;97403.47;5097254;27;20035;-83
2022/07/11 08:06:26;;;;;;;7.97;1.83;;;;;;;30.69;30.93;97406.53;5126481;27;20491;-85
2022/07/11 08:08:51;;;;;;;14.85;2.15;;;;;;;30.76;30.64;97403.72;5111137;27;20085;-83
2022/07/11 08:11:18;;;;;;;7.25;1.83;;;;;;;29.55;31.54;97409.28;5098919;27;20546;-84
2022/07/11 08:13:44;;;;;;;9.25;1.58;;;;;;;29.82;31.07;97404.53;5092586;28;20036;-83
2022/07/11 08:16:09;;;;;;;4.50;1.40;;;;;;;31.00;29.07;97394.59;5093698;27;20476;-83
2022/07/11 08:18:35;;;;;;;2.35;1.20;;;;;;;31.00;29.13;97409.28;5094414;28;20146;-84
2022/07/11 08:21:01;;;;;;;4.45;1.52;;;;;;;31.72;29.24;97418.69;5095231;27;20019;-84
2022/07/11 08:23:30;;;;;;;2.67;1.50;;;;;;;33.59;26.92;97409.81;5092158;28;20474;-83
2022/07/11 08:25:55;;;;;;;2.35;1.50;;;;;;;34.13;26.43;97405.72;5109020;28;20068;-84
2022/07/11 08:28:21;;;;;;;4.25;2.40;;;;;;;33.71;26.84;97411.50;5108825;28;20031;-83
2022/07/11 08:30:47;;;;;;;5.70;1.52;;;;;;;33.85;26.00;97397.34;5111418;27;20054;-82
2022/07/11 08:33:15;;;;;;;1.25;1.15;;;;;;;33.94;26.18;97405.03;5111851;27;20035;-84
2022/07/11 08:35:41;;;;;;;7.18;2.95;;;;;;;35.05;25.67;97409.06;5092997;28;20035;-83
2022/07/11 08:38:06;;;;;;;4.70;1.38;;;;;;;34.28;25.20;97403.25;5091225;28;20103;-83
2022/07/11 08:40:32;;;;;;;13.13;1.90;;;;;;;31.31;28.60;97411.09;5091336;28;20067;-82
2022/07/11 08:43:00;;;;;;;2.30;1.73;;;;;;;31.91;28.40;97411.22;5108274;28;20032;-83
2022/07/11 08:45:29;;;;;;;1.27;1.05;;;;;;;32.96;27.15;97398.59;5108240;28;20499;-83
2022/07/11 08:47:57;;;;;;;11.60;8.98;;;;;;;32.90;27.09;97405.09;5125286;27;20028;-83
2022/07/11 08:50:22;;;;;;;6.18;1.85;;;;;;;34.77;25.54;97394.16;5092760;27;20380;-84
2022/07/11 08:52:48;;;;;;;3.25;1.30;;;;;;;34.98;24.94;97394.53;5092308;28;20042;-83
2022/07/11 08:55:13;;;;;;;2.65;1.42;;;;;;;32.81;26.12;97400.97;5091125;28;20067;-85
2022/07/11 08:57:39;;;;;;;11.48;1.35;;;;;;;29.00;31.92;97385.03;5091990;28;20023;-81
2022/07/11 09:00:08;;;;;;;6.30;1.50;;;;;;;28.33;32.63;97402.56;5093264;28;20066;-81
2022/07/11 09:02:34;;;;;;;1.70;1.38;;;;;;;28.85;32.33;97414.72;5127234;27;20154;-83
2022/07/11 09:05:03;;;;;;;3.78;1.60;;;;;;;29.80;33.59;97414.91;5093310;28;20023;-83
2022/07/11 09:07:28;;;;;;;3.15;1.35;;;;;;;29.88;31.82;97413.84;5110688;28;20024;-82
2022/07/11 09:09:54;;;;;;;11.13;1.67;;;;;;;29.86;31.28;97411.31;5093630;28;20022;-82
2022/07/11 09:12:20;;;;;;;4.40;1.30;;;;;;;29.65;32.23;97407.97;5093209;28;20028;-83
2022/07/11 09:14:48;;;;;;;2.20;1.33;;;;;;;30.32;31.98;97411.03;5093595;28;20024;-82
2022/07/11 09:17:13;;;;;;;2.88;1.20;;;;;;;32.05;29.29;97419.19;5129602;27;20470;-82
2022/07/11 09:19:39;;;;;;;4.03;1.85;;;;;;;33.13;27.59;97405.16;5094060;28;20027;-84
2022/07/11 09:25:23;;;;;;;7.88;4.80;;;;;;;30.20;31.80;97418.34;5113065;27;20082;-81
2022/07/11 09:28:04;;;;;;;3.20;1.42;;;;;;;28.53;33.20;97414.47;5082403;28;20032;-83
2022/07/11 09:30:39;;;;;;;5.22;2.10;;;;;;;28.27;37.48;97430.13;5125342;27;20430;-81
2022/07/11 09:33:09;;;;;;;6.25;1.80;;;;;;;28.96;35.37;97427.81;5090906;28;20028;-83
2022/07/11 09:35:36;;;;;;;1.85;1.58;;;;;;;29.75;31.52;97411.94;5093927;27;20038;-82
2022/07/11 09:38:10;;;;;;;2.35;1.20;;;;;;;31.08;31.66;97419.16;5094552;28;20478;-81
2022/07/11 09:40:36;;;;;;;6.10;2.30;;;;;;;33.10;27.31;97411.19;5090494;28;20514;-81
2022/07/11 09:43:03;;;;;;;5.28;2.35;;;;;;;33.56;27.67;97410.31;5090504;28;20016;-80
2022/07/11 09:45:31;;;;;;;2.50;1.83;;;;;;;32.69;28.05;97404.59;5090814;28;20050;-80
2022/07/11 09:47:59;;;;;;;4.47;1.45;;;;;;;33.14;28.47;97413.22;5090714;28;20467;-82
2022/07/11 09:50:26;;;;;;;3.15;1.20;;;;;;;33.56;26.99;97405.56;5107210;28;20164;-81
2022/07/11 09:52:59;;;;;;;6.88;1.65;;;;;;;34.79;25.97;97400.31;5090216;28;20117;-82
2022/07/11 09:55:26;;;;;;;3.05;1.40;;;;;;;35.70;25.33;97398.16;5126630;27;20167;-83
2022/07/11 09:57:51;;;;;;;4.75;1.50;;;;;;;36.89;23.65;97388.63;5096582;28;20050;-84
2022/07/11 10:00:17;;;;;;;4.72;1.20;;;;;;;36.33;23.56;97395.59;5107867;28;20040;-83
2022/07/11 10:02:42;;;;;;;2.92;1.40;;;;;;;34.97;24.92;97390.88;5090828;28;20387;-82
2022/07/11 10:05:08;;;;;;;3.47;1.67;;;;;;;36.23;23.86;97394.66;5124517;27;20039;-85
2022/07/11 10:07:34;;;;;;;2.65;1.70;;;;;;;37.23;23.19;97394.78;5089900;28;20096;-82
2022/07/11 10:10:02;;;;;;;1.20;1.10;;;;;;;37.37;22.19;97379.28;5107105;28;20486;-85
2022/07/11 10:12:29;;;;;;;4.55;1.30;;;;;;;37.91;22.55;97384.63;5123861;28;20382;-85
2022/07/11 10:14:56;;;;;;;1.63;1.05;;;;;;;37.64;22.05;97373.56;5090599;28;20119;-85
2022/07/11 10:18:07;;;;;;;4.88;1.48;;;;;;;38.05;22.08;97394.19;5126802;27;20084;-84
2022/07/11 10:20:56;;;;;;;1.52;1.05;;;;;;;34.31;25.44;97388.84;5088785;27;20112;-88
2022/07/11 10:23:48;;;;;;;2.00;1.30;;;;;;;36.47;25.88;97407.19;5114300;27;20055;-82
2022/07/11 10:26:43;;;;;;;2.08;1.42;;;;;;;37.91;22.45;97402.22;5141271;27;20474;-84
2022/07/11 10:29:16;;;;;;;2.00;1.23;;;;;;;38.61;21.88;97395.19;5089310;28;20489;-80
2022/07/11 10:31:42;;;;;;;3.60;1.30;;;;;;;39.61;20.29;97392.69;5111252;28;20035;-81
2022/07/11 10:34:18;;;;;;;1.63;1.13;;;;;;;37.37;22.13;97386.81;5094084;28;20040;-83
2022/07/11 10:36:45;;;;;;;1.77;1.40;;;;;;;36.31;23.59;97399.75;5096806;27;20114;-84
2022/07/11 10:39:29;;;;;;;2.03;1.00;;;;;;;34.48;24.48;97394.44;5113857;27;20035;-85
2022/07/11 10:41:56;;;;;;;1.80;1.40;;;;;;;33.18;26.60;97391.41;5094436;28;20036;-85
2022/07/11 10:44:22;;;;;;;11.05;1.50;;;;;;;32.05;27.45;97398.94;5128897;27;20201;-84
2022/07/11 10:46:48;;;;;;;7.95;2.50;;;;;;;30.56;28.40;97395.59;5094611;28;20042;-84
2022/07/11 10:49:18;;;;;;;6.55;1.92;;;;;;;31.22;28.27;97406.94;5097067;27;20395;-85
2022/07/11 10:51:49;;;;;;;1.98;1.30;;;;;;;31.74;27.44;97410.19;5112626;27;20039;-85
2022/07/11 10:54:42;;;;;;;3.97;1.23;;;;;;;30.85;27.77;97407.88;5113660;27;20043;-85
2022/07/11 10:57:19;;;;;;;2.75;1.42;;;;;;;32.32;26.93;97408.56;5096226;28;20062;-85
2022/07/11 10:59:55;;;;;;;6.50;3.17;;;;;;;34.45;24.33;97395.81;5133028;27;20061;-86
2022/07/11 11:02:20;;;;;;;2.47;1.67;;;;;;;35.14;24.19;97397.31;5094657;28;20498;-86
2022/07/11 11:04:47;;;;;;;6.18;2.45;;;;;;;36.58;23.00;97402.59;5094283;28;20031;-86
2022/07/11 11:07:31;;;;;;;5.88;1.63;;;;;;;36.46;23.08;97405.47;5130014;27;20040;-86
2022/07/11 11:09:59;;;;;;;12.45;1.95;;;;;;;37.97;21.64;97366.75;5112053;27;20066;-84
2022/07/11 11:13:07;;;;;;;10.43;1.60;;;;;;;37.85;21.61;97400.50;5128112;27;20038;-85
2022/07/11 11:15:42;;;;;;;2.55;1.02;;;;;;;37.59;21.88;97395.91;5053167;28;20039;-85
2022/07/11 11:21:01;;;;;;;2.85;1.27;;;;;;;38.34;20.66;97388.94;5100751;27;20208;-85
2022/07/11 11:23:32;;;;;;;1.38;1.25;;;;;;;38.96;19.75;97386.84;5114241;27;20035;-85
2022/07/11 11:26:07;;;;;;;3.70;1.25;;;;;;;38.91;20.57;97395.28;5115697;27;20023;-85
2022/07/11 11:28:33;;;;;;;1.67;1.20;;;;;;;37.12;22.00;97386.63;5106382;28;20421;-85
2022/07/11 11:31:00;;;;;;;3.55;1.40;;;;;;;37.68;21.38;97385.91;5093159;28;20047;-85
2022/07/11 11:33:28;;;;;;;2.00;1.52;;;;;;;38.41;21.03;97389.56;5095658;27;20124;-85
2022/07/11 11:36:03;;;;;;;1.55;1.17;;;;;;;38.35;20.56;97385.94;5096040;28;20034;-85
2022/07/11 11:41:29;;;;;;;1.50;1.10;;;;;;;36.30;25.83;97400.88;5112043;27;20142;-83
2022/07/11 11:43:57;;;;;;;3.17;1.30;;;;;;;37.30;25.35;97402.94;5095791;28;20092;-79
2022/07/11 11:46:29;;;;;;;8.00;1.30;;;;;;;36.73;22.50;97395.19;5093779;28;20410;-85